createdAt,value
2022-12-18T00:01:38.352Z,-3.43
2022-12-18T00:04:09.019Z,-3.43
2022-12-18T00:06:36.849Z,-3.46
2022-12-18T00:09:05.029Z,-3.47
2022-12-18T00:11:32.951Z,-3.51
2022-12-18T00:14:00.762Z,-3.54
2022-12-18T00:16:29.745Z,-3.56
2022-12-18T00:18:59.027Z,-3.56
2022-12-18T00:21:28.291Z,-3.55
2022-12-18T00:23:56.848Z,-3.52
2022-12-18T00:26:28.094Z,-3.50
2022-12-18T00:29:03.100Z,-3.48
2022-12-18T00:31:31.805Z,-3.45
2022-12-18T00:34:00.545Z,-3.45
2022-12-18T00:36:34.628Z,-3.46
2022-12-18T00:39:05.022Z,-3.50
2022-12-18T00:41:48.851Z,-3.50
2022-12-18T00:44:18.630Z,-3.52
2022-12-18T00:46:47.982Z,-3.54
2022-12-18T00:49:18.815Z,-3.53
2022-12-18T00:51:48.334Z,-3.55
2022-12-18T00:54:16.662Z,-3.58
2022-12-18T00:56:49.075Z,-3.57
2022-12-18T00:59:18.988Z,-3.56
2022-12-18T01:01:47.674Z,-3.54
2022-12-18T01:04:16.030Z,-3.52
2022-12-18T01:06:46.683Z,-3.50
2022-12-18T01:09:14.426Z,-3.47
2022-12-18T01:11:42.303Z,-3.45
2022-12-18T01:14:11.175Z,-3.42
2022-12-18T01:16:39.079Z,-3.40
2022-12-18T01:19:07.142Z,-3.39
2022-12-18T01:21:34.777Z,-3.37
2022-12-18T01:24:06.309Z,-3.36
2022-12-18T01:26:34.993Z,-3.33
2022-12-18T01:29:02.663Z,-3.31
2022-12-18T01:31:32.500Z,-3.32
2022-12-18T01:34:05.910Z,-3.33
2022-12-18T01:36:38.212Z,-3.29
2022-12-18T01:39:10.893Z,-3.26
2022-12-18T01:41:54.918Z,-3.24
2022-12-18T01:44:55.391Z,-3.25
2022-12-18T01:47:28.250Z,-3.32
2022-12-18T01:49:58.420Z,-3.35
2022-12-18T01:52:31.427Z,-3.33
2022-12-18T01:55:01.284Z,-3.31
2022-12-18T01:57:29.424Z,-3.35
2022-12-18T02:00:02.585Z,-3.39
2022-12-18T02:02:43.154Z,-3.37
2022-12-18T02:05:13.758Z,-3.35
2022-12-18T02:07:45.247Z,-3.32
2022-12-18T02:10:32.513Z,-3.29
2022-12-18T02:13:23.014Z,-3.29
2022-12-18T02:16:12.822Z,-3.27
2022-12-18T02:18:47.031Z,-3.28
2022-12-18T02:21:46.604Z,-3.33
2022-12-18T02:24:21.512Z,-3.36
2022-12-18T02:26:58.755Z,-3.42
2022-12-18T02:29:32.032Z,-3.42
2022-12-18T02:32:01.027Z,-3.38
2022-12-18T02:34:37.205Z,-3.35
2022-12-18T02:37:11.697Z,-3.26
2022-12-18T02:39:42.664Z,-3.16
2022-12-18T02:42:12.716Z,-3.11
2022-12-18T02:44:47.248Z,-3.12
2022-12-18T02:47:19.762Z,-3.10
2022-12-18T02:50:09.714Z,-3.05
2022-12-18T02:52:53.769Z,-3.00
2022-12-18T02:55:38.788Z,-3.01
2022-12-18T02:58:31.153Z,-3.08
2022-12-18T03:01:19.164Z,-3.08
2022-12-18T03:03:55.757Z,-3.04
2022-12-18T03:06:49.490Z,-3.04
2022-12-18T03:09:27.414Z,-3.00
2022-12-18T03:12:21.801Z,-2.94
2022-12-18T03:15:13.219Z,-2.85
2022-12-18T03:17:46.599Z,-2.80
2022-12-18T03:20:18.251Z,-2.75
2022-12-18T03:22:51.265Z,-2.67
2022-12-18T03:25:20.017Z,-2.64
2022-12-18T03:27:52.305Z,-2.63
2022-12-18T03:30:21.839Z,-2.61
2022-12-18T03:33:00.001Z,-2.59
2022-12-18T03:35:32.890Z,-2.59
2022-12-18T03:38:00.840Z,-2.60
2022-12-18T03:40:36.107Z,-2.63
2022-12-18T03:43:24.159Z,-2.64
2022-12-18T03:46:13.004Z,-2.63
2022-12-18T03:48:51.226Z,-2.62
2022-12-18T03:51:38.373Z,-2.59
2022-12-18T03:54:09.727Z,-2.64
2022-12-18T03:56:45.151Z,-2.67
2022-12-18T03:59:16.281Z,-2.68
2022-12-18T04:01:48.808Z,-2.69
2022-12-18T04:04:19.944Z,-2.75
2022-12-18T04:06:50.268Z,-2.79
2022-12-18T04:09:20.042Z,-2.85
2022-12-18T04:11:48.584Z,-2.92
2022-12-18T04:14:18.275Z,-3.00
2022-12-18T04:16:47.679Z,-3.07
2022-12-18T04:19:16.818Z,-3.16
2022-12-18T04:21:45.774Z,-3.21
2022-12-18T04:24:14.067Z,-3.26
2022-12-18T04:26:46.956Z,-3.30
2022-12-18T04:29:19.893Z,-3.29
2022-12-18T04:31:48.566Z,-3.31
2022-12-18T04:34:16.922Z,-3.38
2022-12-18T04:36:49.830Z,-3.40
2022-12-18T04:39:18.066Z,-3.41
2022-12-18T04:41:46.326Z,-3.41
2022-12-18T04:44:14.985Z,-3.47
2022-12-18T04:46:42.727Z,-3.51
2022-12-18T04:49:13.902Z,-3.52
2022-12-18T04:51:41.506Z,-3.50
2022-12-18T04:54:09.085Z,-3.52
2022-12-18T04:56:37.014Z,-3.54
2022-12-18T04:59:05.813Z,-3.58
2022-12-18T05:01:35.032Z,-3.59
2022-12-18T05:04:04.030Z,-3.64
2022-12-18T05:06:32.061Z,-3.66
2022-12-18T05:08:59.730Z,-3.67
2022-12-18T05:11:27.296Z,-3.63
2022-12-18T05:13:55.033Z,-3.61
2022-12-18T05:16:22.615Z,-3.63
2022-12-18T05:18:50.286Z,-3.67
2022-12-18T05:21:17.852Z,-3.68
2022-12-18T05:23:45.439Z,-3.74
2022-12-18T05:26:18.190Z,-3.80
2022-12-18T05:28:46.900Z,-3.84
2022-12-18T05:31:15.332Z,-3.92
2022-12-18T05:33:43.963Z,-3.98
2022-12-18T05:36:12.625Z,-4.05
2022-12-18T05:38:40.929Z,-4.15
2022-12-18T05:41:09.378Z,-4.30
2022-12-18T05:43:39.492Z,-4.43
2022-12-18T05:46:09.767Z,-4.54
2022-12-18T05:48:37.435Z,-4.63
2022-12-18T05:51:10.872Z,-4.73
2022-12-18T05:53:39.612Z,-4.82
2022-12-18T05:56:10.678Z,-4.87
2022-12-18T05:58:38.568Z,-4.95
2022-12-18T06:01:12.923Z,-5.02
2022-12-18T06:03:41.359Z,-5.09
2022-12-18T06:06:26.806Z,-5.13
2022-12-18T06:08:55.830Z,-5.16
2022-12-18T06:11:26.391Z,-5.17
2022-12-18T06:13:58.754Z,-5.17
2022-12-18T06:16:30.781Z,-5.22
2022-12-18T06:19:04.492Z,-5.31
2022-12-18T06:21:33.646Z,-5.42
2022-12-18T06:24:01.576Z,-5.50
2022-12-18T06:26:29.270Z,-5.58
2022-12-18T06:28:56.940Z,-5.62
2022-12-18T06:31:25.857Z,-5.72
2022-12-18T06:33:53.508Z,-5.74
2022-12-18T06:36:21.898Z,-5.77
2022-12-18T06:38:49.957Z,-5.80
2022-12-18T06:41:21.305Z,-5.84
2022-12-18T06:43:48.910Z,-5.87
2022-12-18T06:46:16.916Z,-5.90
2022-12-18T06:48:47.958Z,-5.91
2022-12-18T06:51:20.776Z,-5.93
2022-12-18T06:53:48.388Z,-5.92
2022-12-18T06:56:16.568Z,-5.93
2022-12-18T06:58:44.595Z,-5.93
2022-12-18T07:01:13.570Z,-5.94
2022-12-18T07:03:42.441Z,-5.94
2022-12-18T07:06:16.093Z,-5.90
2022-12-18T07:08:44.193Z,-5.83
2022-12-18T07:11:11.898Z,-5.79
2022-12-18T07:13:40.000Z,-5.80
2022-12-18T07:16:26.645Z,-5.83
2022-12-18T07:18:56.496Z,-5.79
2022-12-18T07:21:25.589Z,-5.75
2022-12-18T07:23:53.234Z,-5.71
2022-12-18T07:26:22.782Z,-5.69
2022-12-18T07:28:50.799Z,-5.66
2022-12-18T07:31:21.563Z,-5.62
2022-12-18T07:33:51.199Z,-5.57
2022-12-18T07:36:20.148Z,-5.50
2022-12-18T07:38:49.907Z,-5.43
2022-12-18T07:41:17.874Z,-5.38
2022-12-18T07:43:45.526Z,-5.31
2022-12-18T07:46:15.219Z,-5.25
2022-12-18T07:48:44.785Z,-5.21
2022-12-18T07:51:19.455Z,-5.16
2022-12-18T07:53:52.307Z,-5.12
2022-12-18T07:56:30.348Z,-5.08
2022-12-18T07:59:00.558Z,-5.08
2022-12-18T08:01:28.942Z,-5.05
2022-12-18T08:03:58.641Z,-5.01
2022-12-18T08:06:26.830Z,-5.00
2022-12-18T08:08:56.001Z,-4.98
2022-12-18T08:11:26.459Z,-4.94
2022-12-18T08:13:54.832Z,-4.91
2022-12-18T08:16:23.168Z,-4.92
2022-12-18T08:18:53.524Z,-4.94
2022-12-18T08:21:27.088Z,-4.95
2022-12-18T08:23:56.327Z,-4.97
2022-12-18T08:26:26.163Z,-4.99
2022-12-18T08:28:55.715Z,-5.00
2022-12-18T08:31:27.008Z,-5.00
2022-12-18T08:33:56.235Z,-5.00
2022-12-18T08:36:25.433Z,-5.01
2022-12-18T08:38:54.755Z,-5.02
2022-12-18T08:41:22.565Z,-5.02
2022-12-18T08:44:06.226Z,-5.01
2022-12-18T08:46:40.360Z,-4.96
2022-12-18T08:49:10.151Z,-4.94
2022-12-18T08:51:38.976Z,-4.93
2022-12-18T08:54:07.550Z,-4.92
2022-12-18T08:56:35.647Z,-4.87
2022-12-18T08:59:03.793Z,-4.82
2022-12-18T09:01:31.708Z,-4.75
2022-12-18T09:03:59.916Z,-4.71
2022-12-18T09:06:27.768Z,-4.67
2022-12-18T09:08:55.379Z,-4.64
2022-12-18T09:11:25.478Z,-4.63
2022-12-18T09:13:54.942Z,-4.60
2022-12-18T09:16:28.827Z,-4.60
2022-12-18T09:19:00.831Z,-4.60
2022-12-18T09:21:35.803Z,-4.59
2022-12-18T09:24:08.627Z,-4.56
2022-12-18T09:26:37.881Z,-4.50
2022-12-18T09:29:07.971Z,-4.44
2022-12-18T09:31:39.105Z,-4.39
2022-12-18T09:34:06.896Z,-4.37
2022-12-18T09:36:34.528Z,-4.33
2022-12-18T09:39:07.573Z,-4.29
2022-12-18T09:41:54.360Z,-4.29
2022-12-18T09:44:45.531Z,-4.29
2022-12-18T09:47:19.484Z,-4.28
2022-12-18T09:49:51.618Z,-4.25
2022-12-18T09:52:31.464Z,-4.26
2022-12-18T09:55:11.780Z,-4.30
2022-12-18T09:57:46.275Z,-4.39
2022-12-18T10:00:22.982Z,-4.44
2022-12-18T10:03:04.473Z,-4.44
2022-12-18T10:05:54.641Z,-4.41
2022-12-18T10:08:45.021Z,-4.32
2022-12-18T10:11:34.344Z,-4.24
2022-12-18T10:14:23.253Z,-4.14
2022-12-18T10:17:22.846Z,-4.03
2022-12-18T10:20:14.485Z,-3.94
2022-12-18T10:22:49.907Z,-3.89
2022-12-18T10:25:37.376Z,-3.84
2022-12-18T10:28:13.254Z,-3.82
2022-12-18T10:30:42.759Z,-3.80
2022-12-18T10:33:15.024Z,-3.74
2022-12-18T10:35:43.877Z,-3.75
2022-12-18T10:38:17.491Z,-3.76
2022-12-18T10:40:49.584Z,-3.71
2022-12-18T10:43:23.915Z,-3.70
2022-12-18T10:46:08.523Z,-3.67
2022-12-18T10:48:56.616Z,-3.66
2022-12-18T10:51:34.749Z,-3.61
2022-12-18T10:54:06.701Z,-3.59
2022-12-18T10:56:36.765Z,-3.57
2022-12-18T10:59:13.711Z,-3.53
2022-12-18T11:01:58.370Z,-3.47
2022-12-18T11:04:32.387Z,-3.44
2022-12-18T11:07:01.744Z,-3.39
2022-12-18T11:09:35.359Z,-3.36
2022-12-18T11:12:07.132Z,-3.41
2022-12-18T11:14:46.825Z,-3.43
2022-12-18T11:17:35.826Z,-3.45
2022-12-18T11:20:10.938Z,-3.48
2022-12-18T11:22:39.461Z,-3.47
2022-12-18T11:28:22.556Z,-3.50
2022-12-18T11:30:50.267Z,-3.50
2022-12-18T11:33:22.887Z,-3.49
2022-12-18T11:35:53.784Z,-3.50
2022-12-18T11:38:29.806Z,-3.47
2022-12-18T11:41:04.870Z,-3.41
2022-12-18T11:43:46.536Z,-3.39
2022-12-18T11:46:20.226Z,-3.39
2022-12-18T11:48:53.345Z,-3.36
2022-12-18T11:51:30.959Z,-3.41
2022-12-18T11:53:58.966Z,-3.43
2022-12-18T11:56:33.550Z,-3.44
2022-12-18T11:59:33.347Z,-3.43
2022-12-18T12:02:20.059Z,-3.39
2022-12-18T12:04:56.892Z,-3.41
2022-12-18T12:07:56.463Z,-3.41
2022-12-18T12:10:43.578Z,-3.46
2022-12-18T12:13:38.487Z,-3.43
2022-12-18T12:16:29.866Z,-3.41
2022-12-18T12:19:19.138Z,-3.42
2022-12-18T12:21:59.196Z,-3.39
2022-12-18T12:24:49.113Z,-3.34
2022-12-18T12:27:48.796Z,-3.34
2022-12-18T12:30:21.241Z,-3.26
2022-12-18T12:33:10.620Z,-3.20
2022-12-18T12:35:47.897Z,-3.19
2022-12-18T12:38:32.500Z,-3.24
2022-12-18T12:41:30.497Z,-3.30
2022-12-18T12:44:02.332Z,-3.35
2022-12-18T12:46:33.681Z,-3.32
2022-12-18T12:49:05.256Z,-3.31
2022-12-18T12:51:36.533Z,-3.33
2022-12-18T12:54:11.928Z,-3.35
2022-12-18T12:56:52.820Z,-3.40
2022-12-18T12:59:32.243Z,-3.45
2022-12-18T13:02:16.222Z,-3.45
2022-12-18T13:04:57.475Z,-3.44
2022-12-18T13:07:58.597Z,-3.46
2022-12-18T13:10:43.279Z,-3.46
2022-12-18T13:13:18.649Z,-3.46
2022-12-18T13:16:09.028Z,-3.48
2022-12-18T13:18:36.877Z,-3.54
2022-12-18T13:21:19.787Z,-3.58
2022-12-18T13:23:47.871Z,-3.63
2022-12-18T13:26:21.956Z,-3.63
2022-12-18T13:28:57.177Z,-3.62
2022-12-18T13:31:41.033Z,-3.64
2022-12-18T13:34:26.296Z,-3.69
2022-12-18T13:37:17.807Z,-3.72
2022-12-18T13:39:45.950Z,-3.77
2022-12-18T13:42:33.631Z,-3.80
2022-12-18T13:45:01.703Z,-3.76
2022-12-18T13:47:34.244Z,-3.71
2022-12-18T13:50:19.919Z,-3.66
2022-12-18T13:52:48.821Z,-3.66
2022-12-18T13:55:19.771Z,-3.68
2022-12-18T13:57:47.792Z,-3.68
2022-12-18T14:00:31.945Z,-3.71
2022-12-18T14:03:01.117Z,-3.80
2022-12-18T14:05:33.187Z,-3.89
2022-12-18T14:08:13.520Z,-3.99
2022-12-18T14:10:48.442Z,-4.09
2022-12-18T14:13:35.453Z,-4.18
2022-12-18T14:16:06.348Z,-4.22
2022-12-18T14:18:44.552Z,-4.25
2022-12-18T14:21:33.437Z,-4.29
2022-12-18T14:24:21.797Z,-4.33
2022-12-18T14:26:51.532Z,-4.35
2022-12-18T14:29:31.245Z,-4.35
2022-12-18T14:32:09.342Z,-4.36
2022-12-18T14:34:39.703Z,-4.31
2022-12-18T14:37:11.468Z,-4.29
2022-12-18T14:39:39.657Z,-4.30
2022-12-18T14:42:12.195Z,-4.33
2022-12-18T14:45:05.020Z,-4.39
2022-12-18T14:47:27.425Z,-4.42
2022-12-18T14:49:55.538Z,-4.45
2022-12-18T14:52:28.691Z,-4.47
2022-12-18T14:54:56.306Z,-4.52
2022-12-18T14:57:36.719Z,-4.58
2022-12-18T15:00:06.642Z,-4.63
2022-12-18T15:02:37.209Z,-4.62
2022-12-18T15:05:18.147Z,-4.63
2022-12-18T15:07:48.705Z,-4.63
2022-12-18T15:10:20.028Z,-4.65
2022-12-18T15:13:18.616Z,-4.68
2022-12-18T15:15:48.159Z,-4.74
2022-12-18T15:18:18.493Z,-4.79
2022-12-18T15:20:50.576Z,-4.80
2022-12-18T15:23:33.135Z,-4.79
2022-12-18T15:26:00.822Z,-4.81
2022-12-18T15:28:34.373Z,-4.82
2022-12-18T15:31:18.328Z,-4.81
2022-12-18T15:33:53.258Z,-4.84
2022-12-18T15:36:26.456Z,-4.90
2022-12-18T15:39:02.194Z,-4.98
2022-12-18T15:41:36.003Z,-5.04
2022-12-18T15:44:21.678Z,-5.09
2022-12-18T15:46:49.592Z,-5.12
2022-12-18T15:49:17.176Z,-5.15
2022-12-18T15:51:45.675Z,-5.17
2022-12-18T15:54:17.152Z,-5.21
2022-12-18T15:57:00.898Z,-5.19
2022-12-18T15:59:28.524Z,-5.22
2022-12-18T16:01:57.262Z,-5.28
2022-12-18T16:04:26.154Z,-5.32
2022-12-18T16:07:14.500Z,-5.35
2022-12-18T16:09:43.123Z,-5.40
2022-12-18T16:12:21.007Z,-5.43
2022-12-18T16:14:48.904Z,-5.44
2022-12-18T16:17:16.812Z,-5.46
2022-12-18T16:19:45.278Z,-5.53
2022-12-18T16:22:23.265Z,-5.58
2022-12-18T16:24:52.607Z,-5.62
2022-12-18T16:27:21.088Z,-5.67
2022-12-18T16:29:49.351Z,-5.71
2022-12-18T16:32:19.997Z,-5.72
2022-12-18T16:34:48.318Z,-5.73
2022-12-18T16:37:17.276Z,-5.74
2022-12-18T16:39:45.456Z,-5.76
2022-12-18T16:42:17.544Z,-5.77
2022-12-18T16:44:47.389Z,-5.77
2022-12-18T16:47:17.232Z,-5.72
2022-12-18T16:49:45.931Z,-5.70
2022-12-18T16:52:14.711Z,-5.72
2022-12-18T16:54:42.322Z,-5.74
2022-12-18T16:57:13.890Z,-5.77
2022-12-18T16:59:41.693Z,-5.79
2022-12-18T17:02:19.836Z,-5.80
2022-12-18T17:04:57.518Z,-5.81
2022-12-18T17:07:26.256Z,-5.83
2022-12-18T17:09:54.592Z,-5.86
2022-12-18T17:12:22.945Z,-5.87
2022-12-18T17:14:50.817Z,-5.90
2022-12-18T17:17:21.930Z,-5.93
2022-12-18T17:19:51.966Z,-5.95
2022-12-18T17:22:21.053Z,-6.00
2022-12-18T17:24:48.684Z,-6.08
2022-12-18T17:27:16.647Z,-6.17
2022-12-18T17:29:48.409Z,-6.24
2022-12-18T17:32:17.688Z,-6.29
2022-12-18T17:34:45.640Z,-6.30
2022-12-18T17:37:13.633Z,-6.24
2022-12-18T17:39:42.105Z,-6.20
2022-12-18T17:42:15.062Z,-6.18
2022-12-18T17:44:44.308Z,-6.18
2022-12-18T17:47:13.673Z,-6.19
2022-12-18T17:49:41.865Z,-6.17
2022-12-18T17:52:09.742Z,-6.14
2022-12-18T17:54:39.952Z,-6.11
2022-12-18T17:57:08.149Z,-6.10
2022-12-18T17:59:35.938Z,-6.12
2022-12-18T18:02:03.785Z,-6.16
2022-12-18T18:04:32.517Z,-6.22
2022-12-18T18:07:00.087Z,-6.29
2022-12-18T18:09:27.759Z,-6.29
2022-12-18T18:12:13.149Z,-6.29
2022-12-18T18:14:40.951Z,-6.27
2022-12-18T18:17:08.772Z,-6.29
2022-12-18T18:19:36.360Z,-6.31
2022-12-18T18:22:04.120Z,-6.30
2022-12-18T18:24:33.297Z,-6.26
2022-12-18T18:27:00.987Z,-6.22
2022-12-18T18:29:30.555Z,-6.23
2022-12-18T18:31:59.327Z,-6.22
2022-12-18T18:34:29.146Z,-6.23
2022-12-18T18:36:56.785Z,-6.25
2022-12-18T18:39:24.966Z,-6.28
2022-12-18T18:41:53.155Z,-6.33
2022-12-18T18:44:25.973Z,-6.33
2022-12-18T18:46:56.207Z,-6.33
2022-12-18T18:49:27.897Z,-6.37
2022-12-18T18:51:57.491Z,-6.41
2022-12-18T18:54:26.716Z,-6.42
2022-12-18T18:59:42.985Z,-6.42
2022-12-18T19:02:15.686Z,-6.40
2022-12-18T19:04:45.672Z,-6.42
2022-12-18T19:07:25.383Z,-6.45
2022-12-18T19:10:04.218Z,-6.49
2022-12-18T19:12:50.088Z,-6.53
2022-12-18T19:15:17.944Z,-6.52
2022-12-18T19:17:46.579Z,-6.51
2022-12-18T19:20:15.979Z,-6.55
2022-12-18T19:22:43.617Z,-6.57
2022-12-18T19:25:18.640Z,-6.60
2022-12-18T19:27:46.373Z,-6.58
2022-12-18T19:30:14.266Z,-6.59
2022-12-18T19:32:42.099Z,-6.58
2022-12-18T19:35:10.211Z,-6.60
2022-12-18T19:37:38.359Z,-6.63
2022-12-18T19:40:12.657Z,-6.69
2022-12-18T19:42:40.578Z,-6.73
2022-12-18T19:45:08.820Z,-6.83
2022-12-18T19:47:36.423Z,-6.90
2022-12-18T19:50:06.053Z,-6.95
2022-12-18T19:52:34.434Z,-6.97
2022-12-18T19:55:02.556Z,-6.96
2022-12-18T19:57:31.700Z,-6.94
2022-12-18T19:59:59.274Z,-6.96
2022-12-18T20:02:27.224Z,-6.99
2022-12-18T20:04:54.943Z,-7.00
2022-12-18T20:07:22.485Z,-7.01
2022-12-18T20:09:57.109Z,-7.02
2022-12-18T20:12:29.087Z,-7.03
2022-12-18T20:14:56.639Z,-7.04
2022-12-18T20:17:24.290Z,-7.07
2022-12-18T20:19:52.351Z,-7.08
2022-12-18T20:22:20.343Z,-7.10
2022-12-18T20:24:47.995Z,-7.11
2022-12-18T20:27:19.567Z,-7.13
2022-12-18T20:29:48.557Z,-7.15
2022-12-18T20:32:16.297Z,-7.14
2022-12-18T20:34:44.186Z,-7.13
2022-12-18T20:37:12.857Z,-7.17
2022-12-18T20:39:40.802Z,-7.21
2022-12-18T20:42:09.509Z,-7.24
2022-12-18T20:44:37.180Z,-7.24
2022-12-18T20:47:08.462Z,-7.23
2022-12-18T20:49:37.559Z,-7.25
2022-12-18T20:52:07.337Z,-7.26
2022-12-18T20:54:35.001Z,-7.26
2022-12-18T20:57:02.604Z,-7.25
2022-12-18T20:59:30.443Z,-7.24
2022-12-18T21:01:58.306Z,-7.23
2022-12-18T21:04:26.194Z,-7.21
2022-12-18T21:06:59.154Z,-7.21
2022-12-18T21:09:28.263Z,-7.14
2022-12-18T21:12:19.822Z,-7.10
2022-12-18T21:14:47.634Z,-7.08
2022-12-18T21:17:16.466Z,-7.09
2022-12-18T21:19:44.163Z,-7.09
2022-12-18T21:22:13.523Z,-7.10
2022-12-18T21:24:41.261Z,-7.11
2022-12-18T21:27:08.894Z,-7.13
2022-12-18T21:29:38.753Z,-7.16
2022-12-18T21:32:06.552Z,-7.18
2022-12-18T21:34:35.125Z,-7.17
2022-12-18T21:37:03.284Z,-7.18
2022-12-18T21:39:31.659Z,-7.18
2022-12-18T21:42:15.804Z,-7.14
2022-12-18T21:44:46.924Z,-7.12
2022-12-18T21:47:21.742Z,-7.11
2022-12-18T21:49:52.810Z,-7.08
2022-12-18T21:52:32.259Z,-7.06
2022-12-18T21:55:08.447Z,-7.06
2022-12-18T21:57:39.104Z,-7.10
2022-12-18T22:00:18.186Z,-7.11
2022-12-18T22:02:48.432Z,-7.10
2022-12-18T22:05:35.747Z,-7.06
2022-12-18T22:08:03.393Z,-7.05
2022-12-18T22:10:31.294Z,-7.05
2022-12-18T22:12:58.870Z,-7.09
2022-12-18T22:15:26.437Z,-7.12
2022-12-18T22:17:59.714Z,-7.13
2022-12-18T22:20:29.367Z,-7.10
2022-12-18T22:22:58.976Z,-7.08
2022-12-18T22:25:29.937Z,-7.05
2022-12-18T22:28:12.519Z,-7.06
2022-12-18T22:30:40.300Z,-7.05
2022-12-18T22:33:08.132Z,-7.03
2022-12-18T22:35:35.724Z,-7.01
2022-12-18T22:38:03.337Z,-7.01
2022-12-18T22:40:31.210Z,-7.01
2022-12-18T22:42:58.811Z,-6.99
2022-12-18T22:45:26.851Z,-7.00
2022-12-18T22:47:54.914Z,-7.00
2022-12-18T22:50:22.554Z,-7.00
2022-12-18T22:52:50.149Z,-6.98
2022-12-18T22:55:17.780Z,-6.97
2022-12-18T22:57:49.178Z,-6.96
2022-12-18T23:00:23.847Z,-6.96
2022-12-18T23:02:59.226Z,-6.98
2022-12-18T23:05:30.554Z,-7.00
2022-12-18T23:07:59.287Z,-7.03
2022-12-18T23:10:27.805Z,-7.05
2022-12-18T23:12:55.614Z,-7.06
2022-12-18T23:15:28.141Z,-7.06
2022-12-18T23:17:57.898Z,-7.08
2022-12-18T23:20:27.300Z,-7.08
2022-12-18T23:22:55.130Z,-7.05
2022-12-18T23:25:23.025Z,-7.06
2022-12-18T23:27:50.970Z,-7.06
2022-12-18T23:30:18.777Z,-7.09
2022-12-18T23:32:46.353Z,-7.11
2022-12-18T23:35:15.735Z,-7.11
2022-12-18T23:38:00.693Z,-7.12
2022-12-18T23:40:29.925Z,-7.12
2022-12-18T23:42:59.000Z,-7.12
2022-12-18T23:45:26.756Z,-7.13
2022-12-18T23:47:54.410Z,-7.14
2022-12-18T23:50:23.610Z,-7.19
2022-12-18T23:53:02.087Z,-7.27
2022-12-18T23:55:38.693Z,-7.30
2022-12-18T23:58:07.966Z,-7.33
